Harrison, South Dakota
Current Conditions -  °F | °C
As of 7:53 AM on Thursday 27 Nov 2014 (Local Time) from KMHE Reporting Station
Broken Clouds Broken Clouds  
Wind Chill: -10°   Ceiling: 6000
Heat Index:   Visibility: 10mi
Dew Point: -6°   Wind: 6mph
Humidity: 72%   Direction: 140°SE
Pressure: 30.49"   Gusts: NA
Location:  43.43°N, 98.53°W
Report Text: KMHE 271353Z AUTO 14005KT 10SM SCT040 BKN060 M17/M21 A3049 RMK AO2 SLP358 T11721211
Loading
Personal Weather Stations






























Interactive Weather Map New forecast layout! Learn more

10-Day Weather Forecast

Advertisements
Track Severe Weather on mobile